Terminal Aerodrome Forecast
Issued by NWS

Home | Current Version | Previous Version | Text Only | Print | Product List | Glossary On
Versions: 1 2 3 4 5 6 7 8 9 10 11 12 13 14 15 16 17 18 19 20
933
FTUS42 KTBW 252324
TAFPIE
TAF
KPIE 252324Z 2600/2624 31008KT P6SM FEW035 SCT250
     FM260200 VRB03KT P6SM SCT250
     FM261400 04006KT P6SM FEW030 SCT250
     FM261800 29008KT P6SM FEW040 SCT250=

USA.gov is the U.S. government's official web portal to all federal, state and local government web resources and services.